sensor_id;sensor_type;location;lat;lon;timestamp;P1;durP1;ratioP1;P2;durP2;ratioP2
4244;SDS011;2136;48.502;9.194;2023-04-30T00:01:24;9.90;;;7.87;;
4244;SDS011;2136;48.502;9.194;2023-04-30T00:03:51;18.23;;;8.83;;
4244;SDS011;2136;48.502;9.194;2023-04-30T00:06:18;12.77;;;8.73;;
4244;SDS011;2136;48.502;9.194;2023-04-30T00:08:46;12.90;;;8.53;;
4244;SDS011;2136;48.502;9.194;2023-04-30T00:11:13;11.40;;;7.53;;
4244;SDS011;2136;48.502;9.194;2023-04-30T00:13:40;9.53;;;8.53;;
4244;SDS011;2136;48.502;9.194;2023-04-30T00:16:08;10.57;;;8.03;;
4244;SDS011;2136;48.502;9.194;2023-04-30T00:18:35;10.63;;;8.43;;
4244;SDS011;2136;48.502;9.194;2023-04-30T00:21:02;9.70;;;8.27;;
4244;SDS011;2136;48.502;9.194;2023-04-30T00:23:29;11.23;;;8.40;;
4244;SDS011;2136;48.502;9.194;2023-04-30T00:25:57;12.83;;;8.50;;
4244;SDS011;2136;48.502;9.194;2023-04-30T00:28:24;9.07;;;6.50;;
4244;SDS011;2136;48.502;9.194;2023-04-30T00:30:51;8.73;;;7.77;;
4244;SDS011;2136;48.502;9.194;2023-04-30T00:33:18;9.77;;;7.03;;
4244;SDS011;2136;48.502;9.194;2023-04-30T00:35:45;11.93;;;8.13;;
4244;SDS011;2136;48.502;9.194;2023-04-30T00:38:12;12.47;;;8.60;;
4244;SDS011;2136;48.502;9.194;2023-04-30T00:40:39;10.70;;;7.67;;
4244;SDS011;2136;48.502;9.194;2023-04-30T00:43:08;9.67;;;7.43;;
4244;SDS011;2136;48.502;9.194;2023-04-30T00:45:35;9.93;;;7.20;;
4244;SDS011;2136;48.502;9.194;2023-04-30T00:48:02;10.03;;;7.50;;
4244;SDS011;2136;48.502;9.194;2023-04-30T00:50:30;9.27;;;7.90;;
4244;SDS011;2136;48.502;9.194;2023-04-30T00:52:57;13.53;;;8.17;;
4244;SDS011;2136;48.502;9.194;2023-04-30T00:55:25;9.00;;;6.90;;
4244;SDS011;2136;48.502;9.194;2023-04-30T00:57:52;8.83;;;7.87;;
4244;SDS011;2136;48.502;9.194;2023-04-30T01:00:21;8.63;;;7.23;;
4244;SDS011;2136;48.502;9.194;2023-04-30T01:02:49;10.17;;;7.80;;
4244;SDS011;2136;48.502;9.194;2023-04-30T01:05:17;11.80;;;6.33;;
4244;SDS011;2136;48.502;9.194;2023-04-30T01:07:44;9.10;;;6.63;;
4244;SDS011;2136;48.502;9.194;2023-04-30T01:10:11;12.67;;;7.00;;
4244;SDS011;2136;48.502;9.194;2023-04-30T01:12:41;10.27;;;7.17;;
4244;SDS011;2136;48.502;9.194;2023-04-30T01:15:17;11.50;;;7.60;;
4244;SDS011;2136;48.502;9.194;2023-04-30T01:17:53;10.80;;;6.50;;
4244;SDS011;2136;48.502;9.194;2023-04-30T01:20:22;12.60;;;9.20;;
4244;SDS011;2136;48.502;9.194;2023-04-30T01:22:54;11.03;;;7.80;;
4244;SDS011;2136;48.502;9.194;2023-04-30T01:25:32;10.60;;;7.30;;
4244;SDS011;2136;48.502;9.194;2023-04-30T01:28:09;10.43;;;6.60;;
4244;SDS011;2136;48.502;9.194;2023-04-30T01:30:39;8.93;;;6.40;;
4244;SDS011;2136;48.502;9.194;2023-04-30T01:33:08;8.90;;;7.43;;
4244;SDS011;2136;48.502;9.194;2023-04-30T01:38:36;7.40;;;5.77;;
4244;SDS011;2136;48.502;9.194;2023-04-30T01:41:17;6.30;;;5.20;;
4244;SDS011;2136;48.502;9.194;2023-04-30T01:43:54;6.40;;;5.47;;
4244;SDS011;2136;48.502;9.194;2023-04-30T01:46:29;8.60;;;6.37;;
4244;SDS011;2136;48.502;9.194;2023-04-30T01:48:59;8.67;;;6.47;;
4244;SDS011;2136;48.502;9.194;2023-04-30T01:51:36;14.40;;;6.10;;
4244;SDS011;2136;48.502;9.194;2023-04-30T01:54:08;8.00;;;6.27;;
4244;SDS011;2136;48.502;9.194;2023-04-30T01:56:44;6.40;;;5.60;;
4244;SDS011;2136;48.502;9.194;2023-04-30T01:59:19;10.33;;;6.73;;
4244;SDS011;2136;48.502;9.194;2023-04-30T02:01:46;13.37;;;7.30;;
4244;SDS011;2136;48.502;9.194;2023-04-30T02:04:13;14.30;;;6.93;;
4244;SDS011;2136;48.502;9.194;2023-04-30T02:06:40;8.63;;;7.00;;
4244;SDS011;2136;48.502;9.194;2023-04-30T02:09:07;7.80;;;5.97;;
4244;SDS011;2136;48.502;9.194;2023-04-30T02:11:34;9.90;;;6.50;;
4244;SDS011;2136;48.502;9.194;2023-04-30T02:14:01;7.60;;;6.40;;
4244;SDS011;2136;48.502;9.194;2023-04-30T02:16:29;5.90;;;5.30;;
4244;SDS011;2136;48.502;9.194;2023-04-30T02:18:56;8.40;;;6.43;;
4244;SDS011;2136;48.502;9.194;2023-04-30T02:21:23;8.90;;;6.40;;
4244;SDS011;2136;48.502;9.194;2023-04-30T02:23:51;7.33;;;5.50;;
4244;SDS011;2136;48.502;9.194;2023-04-30T02:26:18;8.40;;;5.77;;
4244;SDS011;2136;48.502;9.194;2023-04-30T02:28:45;7.60;;;5.73;;
4244;SDS011;2136;48.502;9.194;2023-04-30T02:31:12;7.80;;;5.10;;
4244;SDS011;2136;48.502;9.194;2023-04-30T02:33:40;6.43;;;5.20;;
4244;SDS011;2136;48.502;9.194;2023-04-30T02:36:07;6.53;;;5.83;;
4244;SDS011;2136;48.502;9.194;2023-04-30T02:38:34;7.97;;;6.07;;
4244;SDS011;2136;48.502;9.194;2023-04-30T02:41:01;12.77;;;6.13;;
4244;SDS011;2136;48.502;9.194;2023-04-30T02:43:28;8.40;;;5.63;;
4244;SDS011;2136;48.502;9.194;2023-04-30T02:45:55;11.33;;;7.73;;
4244;SDS011;2136;48.502;9.194;2023-04-30T02:48:22;10.37;;;8.00;;
4244;SDS011;2136;48.502;9.194;2023-04-30T02:50:50;6.90;;;6.07;;
4244;SDS011;2136;48.502;9.194;2023-04-30T02:53:17;9.60;;;6.40;;
4244;SDS011;2136;48.502;9.194;2023-04-30T02:55:44;7.23;;;6.17;;
4244;SDS011;2136;48.502;9.194;2023-04-30T02:58:11;8.30;;;6.17;;
4244;SDS011;2136;48.502;9.194;2023-04-30T03:00:38;6.27;;;5.60;;
4244;SDS011;2136;48.502;9.194;2023-04-30T03:03:05;11.97;;;5.50;;
4244;SDS011;2136;48.502;9.194;2023-04-30T03:05:31;7.27;;;5.80;;
4244;SDS011;2136;48.502;9.194;2023-04-30T03:08:00;10.30;;;5.10;;
4244;SDS011;2136;48.502;9.194;2023-04-30T03:10:27;8.20;;;6.17;;
4244;SDS011;2136;48.502;9.194;2023-04-30T03:12:53;10.77;;;5.90;;
4244;SDS011;2136;48.502;9.194;2023-04-30T03:15:20;6.50;;;5.33;;
4244;SDS011;2136;48.502;9.194;2023-04-30T03:17:47;6.70;;;5.67;;
4244;SDS011;2136;48.502;9.194;2023-04-30T03:20:14;7.50;;;5.03;;
4244;SDS011;2136;48.502;9.194;2023-04-30T03:22:41;8.20;;;4.90;;
4244;SDS011;2136;48.502;9.194;2023-04-30T03:25:09;8.27;;;6.13;;
4244;SDS011;2136;48.502;9.194;2023-04-30T03:27:36;7.13;;;5.03;;
4244;SDS011;2136;48.502;9.194;2023-04-30T03:30:04;4.90;;;4.40;;
4244;SDS011;2136;48.502;9.194;2023-04-30T03:32:31;7.63;;;5.60;;
4244;SDS011;2136;48.502;9.194;2023-04-30T03:34:58;7.23;;;5.43;;
4244;SDS011;2136;48.502;9.194;2023-04-30T03:37:25;8.70;;;5.40;;
4244;SDS011;2136;48.502;9.194;2023-04-30T03:39:52;7.57;;;5.47;;
4244;SDS011;2136;48.502;9.194;2023-04-30T03:42:20;5.30;;;4.73;;
4244;SDS011;2136;48.502;9.194;2023-04-30T03:44:47;6.03;;;5.00;;
4244;SDS011;2136;48.502;9.194;2023-04-30T03:47:14;6.03;;;5.27;;
4244;SDS011;2136;48.502;9.194;2023-04-30T03:49:41;6.47;;;5.57;;
4244;SDS011;2136;48.502;9.194;2023-04-30T03:52:08;5.43;;;4.87;;
4244;SDS011;2136;48.502;9.194;2023-04-30T03:54:35;11.13;;;6.00;;
4244;SDS011;2136;48.502;9.194;2023-04-30T03:57:02;8.53;;;5.87;;
4244;SDS011;2136;48.502;9.194;2023-04-30T03:59:31;8.20;;;5.37;;
4244;SDS011;2136;48.502;9.194;2023-04-30T04:01:58;6.87;;;5.00;;
4244;SDS011;2136;48.502;9.194;2023-04-30T04:04:28;9.33;;;7.00;;
4244;SDS011;2136;48.502;9.194;2023-04-30T04:06:55;7.17;;;6.33;;
4244;SDS011;2136;48.502;9.194;2023-04-30T04:09:22;7.10;;;5.53;;
4244;SDS011;2136;48.502;9.194;2023-04-30T04:11:49;10.57;;;7.30;;
4244;SDS011;2136;48.502;9.194;2023-04-30T04:14:16;8.70;;;6.70;;
4244;SDS011;2136;48.502;9.194;2023-04-30T04:16:44;6.23;;;5.47;;
4244;SDS011;2136;48.502;9.194;2023-04-30T04:19:11;11.90;;;6.23;;
4244;SDS011;2136;48.502;9.194;2023-04-30T04:21:38;8.33;;;5.33;;
4244;SDS011;2136;48.502;9.194;2023-04-30T04:24:05;9.60;;;6.00;;
4244;SDS011;2136;48.502;9.194;2023-04-30T04:26:33;12.07;;;6.87;;
4244;SDS011;2136;48.502;9.194;2023-04-30T04:29:00;8.67;;;7.07;;
4244;SDS011;2136;48.502;9.194;2023-04-30T04:31:27;7.63;;;5.97;;
4244;SDS011;2136;48.502;9.194;2023-04-30T04:33:56;9.03;;;6.30;;
4244;SDS011;2136;48.502;9.194;2023-04-30T04:36:23;9.50;;;7.07;;
4244;SDS011;2136;48.502;9.194;2023-04-30T04:38:51;7.13;;;5.53;;
4244;SDS011;2136;48.502;9.194;2023-04-30T04:41:18;10.30;;;6.10;;
4244;SDS011;2136;48.502;9.194;2023-04-30T04:43:47;12.27;;;7.03;;
4244;SDS011;2136;48.502;9.194;2023-04-30T04:46:13;7.80;;;5.93;;
4244;SDS011;2136;48.502;9.194;2023-04-30T04:48:41;10.20;;;7.17;;
4244;SDS011;2136;48.502;9.194;2023-04-30T04:51:09;8.30;;;6.30;;
4244;SDS011;2136;48.502;9.194;2023-04-30T04:53:36;7.03;;;6.30;;
4244;SDS011;2136;48.502;9.194;2023-04-30T04:56:03;12.70;;;6.30;;
4244;SDS011;2136;48.502;9.194;2023-04-30T04:58:31;13.30;;;7.83;;
4244;SDS011;2136;48.502;9.194;2023-04-30T05:00:58;10.87;;;6.30;;
4244;SDS011;2136;48.502;9.194;2023-04-30T05:03:25;8.00;;;6.00;;
4244;SDS011;2136;48.502;9.194;2023-04-30T05:05:52;8.43;;;6.33;;
4244;SDS011;2136;48.502;9.194;2023-04-30T05:08:20;7.63;;;5.60;;
4244;SDS011;2136;48.502;9.194;2023-04-30T05:10:47;8.00;;;5.63;;
4244;SDS011;2136;48.502;9.194;2023-04-30T05:13:14;9.23;;;6.60;;
4244;SDS011;2136;48.502;9.194;2023-04-30T05:15:41;8.50;;;6.40;;
4244;SDS011;2136;48.502;9.194;2023-04-30T05:18:08;7.63;;;5.73;;
4244;SDS011;2136;48.502;9.194;2023-04-30T05:20:35;9.33;;;6.67;;
4244;SDS011;2136;48.502;9.194;2023-04-30T05:23:01;9.23;;;6.20;;
4244;SDS011;2136;48.502;9.194;2023-04-30T05:25:30;10.00;;;6.80;;
4244;SDS011;2136;48.502;9.194;2023-04-30T05:27:57;7.77;;;6.33;;
4244;SDS011;2136;48.502;9.194;2023-04-30T05:30:23;8.70;;;7.20;;
4244;SDS011;2136;48.502;9.194;2023-04-30T05:32:50;7.33;;;5.70;;
4244;SDS011;2136;48.502;9.194;2023-04-30T05:35:17;7.47;;;5.60;;
4244;SDS011;2136;48.502;9.194;2023-04-30T05:37:44;9.20;;;7.17;;
4244;SDS011;2136;48.502;9.194;2023-04-30T05:40:12;9.17;;;6.87;;
4244;SDS011;2136;48.502;9.194;2023-04-30T05:42:41;14.30;;;7.87;;
4244;SDS011;2136;48.502;9.194;2023-04-30T05:45:09;9.40;;;7.10;;
4244;SDS011;2136;48.502;9.194;2023-04-30T05:47:36;7.73;;;6.63;;
4244;SDS011;2136;48.502;9.194;2023-04-30T05:50:03;8.73;;;6.00;;
4244;SDS011;2136;48.502;9.194;2023-04-30T05:52:30;12.10;;;6.87;;
4244;SDS011;2136;48.502;9.194;2023-04-30T05:54:57;13.97;;;7.17;;
4244;SDS011;2136;48.502;9.194;2023-04-30T05:57:24;12.50;;;7.03;;
4244;SDS011;2136;48.502;9.194;2023-04-30T05:59:53;9.10;;;6.70;;
4244;SDS011;2136;48.502;9.194;2023-04-30T06:02:20;10.23;;;7.03;;
4244;SDS011;2136;48.502;9.194;2023-04-30T06:04:46;7.33;;;6.10;;
4244;SDS011;2136;48.502;9.194;2023-04-30T06:07:13;9.80;;;6.80;;
4244;SDS011;2136;48.502;9.194;2023-04-30T06:09:40;8.87;;;7.20;;
4244;SDS011;2136;48.502;9.194;2023-04-30T06:12:07;12.43;;;7.30;;
4244;SDS011;2136;48.502;9.194;2023-04-30T06:14:34;9.30;;;7.10;;
4244;SDS011;2136;48.502;9.194;2023-04-30T06:17:03;9.30;;;6.57;;
4244;SDS011;2136;48.502;9.194;2023-04-30T06:19:30;8.70;;;7.43;;
4244;SDS011;2136;48.502;9.194;2023-04-30T06:21:56;10.47;;;7.50;;
4244;SDS011;2136;48.502;9.194;2023-04-30T06:24:23;10.63;;;7.13;;
4244;SDS011;2136;48.502;9.194;2023-04-30T06:26:51;9.53;;;6.53;;
4244;SDS011;2136;48.502;9.194;2023-04-30T06:29:18;13.20;;;7.60;;
4244;SDS011;2136;48.502;9.194;2023-04-30T06:31:45;7.83;;;6.10;;
4244;SDS011;2136;48.502;9.194;2023-04-30T06:34:13;10.93;;;7.40;;
4244;SDS011;2136;48.502;9.194;2023-04-30T06:36:40;8.67;;;7.23;;
4244;SDS011;2136;48.502;9.194;2023-04-30T06:39:07;9.33;;;6.33;;
4244;SDS011;2136;48.502;9.194;2023-04-30T06:41:34;12.60;;;7.50;;
4244;SDS011;2136;48.502;9.194;2023-04-30T06:44:01;9.90;;;7.47;;
4244;SDS011;2136;48.502;9.194;2023-04-30T06:46:28;8.33;;;6.83;;
4244;SDS011;2136;48.502;9.194;2023-04-30T06:48:55;8.77;;;6.97;;
4244;SDS011;2136;48.502;9.194;2023-04-30T06:51:23;7.80;;;6.77;;
4244;SDS011;2136;48.502;9.194;2023-04-30T06:53:50;7.40;;;5.70;;
4244;SDS011;2136;48.502;9.194;2023-04-30T06:56:17;8.90;;;6.90;;
4244;SDS011;2136;48.502;9.194;2023-04-30T06:58:46;8.40;;;6.10;;
4244;SDS011;2136;48.502;9.194;2023-04-30T07:01:14;8.83;;;6.47;;
4244;SDS011;2136;48.502;9.194;2023-04-30T07:03:41;8.30;;;6.70;;
4244;SDS011;2136;48.502;9.194;2023-04-30T07:06:08;7.80;;;6.33;;
4244;SDS011;2136;48.502;9.194;2023-04-30T07:08:36;12.93;;;6.90;;
4244;SDS011;2136;48.502;9.194;2023-04-30T07:11:05;8.23;;;6.37;;
4244;SDS011;2136;48.502;9.194;2023-04-30T07:13:32;8.53;;;6.77;;
4244;SDS011;2136;48.502;9.194;2023-04-30T07:15:58;7.53;;;6.13;;
4244;SDS011;2136;48.502;9.194;2023-04-30T07:18:25;12.20;;;6.73;;
4244;SDS011;2136;48.502;9.194;2023-04-30T07:20:52;8.77;;;6.67;;
4244;SDS011;2136;48.502;9.194;2023-04-30T07:23:20;8.20;;;6.30;;
4244;SDS011;2136;48.502;9.194;2023-04-30T07:25:48;6.37;;;5.77;;
4244;SDS011;2136;48.502;9.194;2023-04-30T07:28:15;10.27;;;6.67;;
4244;SDS011;2136;48.502;9.194;2023-04-30T07:30:41;7.97;;;6.87;;
4244;SDS011;2136;48.502;9.194;2023-04-30T07:33:08;7.17;;;6.50;;
4244;SDS011;2136;48.502;9.194;2023-04-30T07:35:35;8.00;;;6.00;;
4244;SDS011;2136;48.502;9.194;2023-04-30T07:38:02;9.77;;;7.33;;
4244;SDS011;2136;48.502;9.194;2023-04-30T07:40:29;11.10;;;7.00;;
4244;SDS011;2136;48.502;9.194;2023-04-30T07:42:58;7.83;;;6.87;;
4244;SDS011;2136;48.502;9.194;2023-04-30T07:45:25;7.83;;;7.03;;
4244;SDS011;2136;48.502;9.194;2023-04-30T07:47:51;6.37;;;5.77;;
4244;SDS011;2136;48.502;9.194;2023-04-30T07:50:18;6.80;;;6.13;;
4244;SDS011;2136;48.502;9.194;2023-04-30T07:52:47;7.70;;;5.70;;
4244;SDS011;2136;48.502;9.194;2023-04-30T07:55:14;8.63;;;5.70;;
4244;SDS011;2136;48.502;9.194;2023-04-30T07:57:41;6.87;;;6.23;;
4244;SDS011;2136;48.502;9.194;2023-04-30T08:00:10;7.50;;;6.43;;
4244;SDS011;2136;48.502;9.194;2023-04-30T08:02:39;8.40;;;5.63;;
4244;SDS011;2136;48.502;9.194;2023-04-30T08:05:08;6.83;;;5.30;;
4244;SDS011;2136;48.502;9.194;2023-04-30T08:07:35;6.43;;;5.30;;
4244;SDS011;2136;48.502;9.194;2023-04-30T08:10:02;13.93;;;5.20;;
4244;SDS011;2136;48.502;9.194;2023-04-30T08:12:29;5.93;;;5.33;;
4244;SDS011;2136;48.502;9.194;2023-04-30T08:14:59;4.80;;;4.33;;
4244;SDS011;2136;48.502;9.194;2023-04-30T08:17:27;10.00;;;4.37;;
4244;SDS011;2136;48.502;9.194;2023-04-30T08:19:54;4.30;;;3.90;;
4244;SDS011;2136;48.502;9.194;2023-04-30T08:22:21;4.83;;;3.97;;
4244;SDS011;2136;48.502;9.194;2023-04-30T08:24:48;6.80;;;4.90;;
4244;SDS011;2136;48.502;9.194;2023-04-30T08:27:15;5.37;;;4.83;;
4244;SDS011;2136;48.502;9.194;2023-04-30T08:29:42;3.67;;;3.43;;
4244;SDS011;2136;48.502;9.194;2023-04-30T08:32:09;7.90;;;3.70;;
4244;SDS011;2136;48.502;9.194;2023-04-30T08:34:37;4.30;;;3.67;;
4244;SDS011;2136;48.502;9.194;2023-04-30T08:37:05;8.17;;;3.63;;
4244;SDS011;2136;48.502;9.194;2023-04-30T08:39:32;5.93;;;4.30;;
4244;SDS011;2136;48.502;9.194;2023-04-30T08:42:00;4.97;;;4.10;;
4244;SDS011;2136;48.502;9.194;2023-04-30T08:44:29;8.73;;;3.50;;
4244;SDS011;2136;48.502;9.194;2023-04-30T08:46:57;3.70;;;3.30;;
4244;SDS011;2136;48.502;9.194;2023-04-30T08:49:25;4.20;;;3.63;;
4244;SDS011;2136;48.502;9.194;2023-04-30T08:51:58;4.77;;;4.37;;
4244;SDS011;2136;48.502;9.194;2023-04-30T08:54:26;4.10;;;3.70;;
4244;SDS011;2136;48.502;9.194;2023-04-30T08:56:55;4.60;;;4.20;;
4244;SDS011;2136;48.502;9.194;2023-04-30T08:59:22;6.63;;;3.90;;
4244;SDS011;2136;48.502;9.194;2023-04-30T09:01:49;3.93;;;3.60;;
4244;SDS011;2136;48.502;9.194;2023-04-30T09:04:16;12.90;;;4.13;;
4244;SDS011;2136;48.502;9.194;2023-04-30T09:06:43;5.50;;;4.07;;
4244;SDS011;2136;48.502;9.194;2023-04-30T09:09:12;4.40;;;4.10;;
4244;SDS011;2136;48.502;9.194;2023-04-30T09:11:40;4.40;;;4.00;;
4244;SDS011;2136;48.502;9.194;2023-04-30T09:14:07;4.73;;;3.97;;
4244;SDS011;2136;48.502;9.194;2023-04-30T09:16:44;3.50;;;3.23;;
4244;SDS011;2136;48.502;9.194;2023-04-30T09:19:21;4.13;;;3.40;;
4244;SDS011;2136;48.502;9.194;2023-04-30T09:21:49;5.50;;;4.47;;
4244;SDS011;2136;48.502;9.194;2023-04-30T09:24:18;4.53;;;4.13;;
4244;SDS011;2136;48.502;9.194;2023-04-30T09:26:45;4.80;;;4.40;;
4244;SDS011;2136;48.502;9.194;2023-04-30T09:29:12;8.03;;;4.60;;
4244;SDS011;2136;48.502;9.194;2023-04-30T09:31:42;4.13;;;3.83;;
4244;SDS011;2136;48.502;9.194;2023-04-30T09:34:11;3.33;;;3.07;;
4244;SDS011;2136;48.502;9.194;2023-04-30T09:36:50;3.47;;;3.17;;
4244;SDS011;2136;48.502;9.194;2023-04-30T09:39:20;2.57;;;2.47;;
4244;SDS011;2136;48.502;9.194;2023-04-30T09:41:47;6.30;;;2.57;;
4244;SDS011;2136;48.502;9.194;2023-04-30T09:44:25;2.50;;;2.30;;
4244;SDS011;2136;48.502;9.194;2023-04-30T09:46:53;2.80;;;2.60;;
4244;SDS011;2136;48.502;9.194;2023-04-30T09:49:21;3.80;;;3.50;;
4244;SDS011;2136;48.502;9.194;2023-04-30T09:51:54;2.90;;;2.60;;
4244;SDS011;2136;48.502;9.194;2023-04-30T09:54:25;3.13;;;2.37;;
4244;SDS011;2136;48.502;9.194;2023-04-30T09:56:53;3.67;;;2.70;;
4244;SDS011;2136;48.502;9.194;2023-04-30T09:59:22;2.80;;;2.60;;
4244;SDS011;2136;48.502;9.194;2023-04-30T10:01:54;3.60;;;3.37;;
4244;SDS011;2136;48.502;9.194;2023-04-30T10:04:24;3.40;;;3.10;;
4244;SDS011;2136;48.502;9.194;2023-04-30T10:06:54;4.30;;;3.90;;
4244;SDS011;2136;48.502;9.194;2023-04-30T10:09:25;4.33;;;3.10;;
4244;SDS011;2136;48.502;9.194;2023-04-30T10:11:59;5.00;;;3.50;;
4244;SDS011;2136;48.502;9.194;2023-04-30T10:14:28;4.60;;;3.80;;
4244;SDS011;2136;48.502;9.194;2023-04-30T10:17:00;3.70;;;3.40;;
4244;SDS011;2136;48.502;9.194;2023-04-30T10:19:35;7.37;;;3.80;;
4244;SDS011;2136;48.502;9.194;2023-04-30T10:22:06;6.67;;;3.40;;
4244;SDS011;2136;48.502;9.194;2023-04-30T10:24:35;5.07;;;3.40;;
4244;SDS011;2136;48.502;9.194;2023-04-30T10:27:03;2.90;;;2.70;;
4244;SDS011;2136;48.502;9.194;2023-04-30T10:29:30;3.27;;;2.93;;
4244;SDS011;2136;48.502;9.194;2023-04-30T10:31:57;3.10;;;2.90;;
4244;SDS011;2136;48.502;9.194;2023-04-30T10:34:27;4.63;;;3.47;;
4244;SDS011;2136;48.502;9.194;2023-04-30T10:37:03;3.33;;;3.03;;
4244;SDS011;2136;48.502;9.194;2023-04-30T10:39:33;4.10;;;3.00;;
4244;SDS011;2136;48.502;9.194;2023-04-30T10:42:03;4.70;;;3.17;;
4244;SDS011;2136;48.502;9.194;2023-04-30T10:44:31;2.43;;;2.30;;
4244;SDS011;2136;48.502;9.194;2023-04-30T10:46:59;3.70;;;3.40;;
4244;SDS011;2136;48.502;9.194;2023-04-30T10:49:26;3.07;;;2.80;;
4244;SDS011;2136;48.502;9.194;2023-04-30T10:51:53;2.37;;;2.27;;
4244;SDS011;2136;48.502;9.194;2023-04-30T10:54:25;2.80;;;2.60;;
4244;SDS011;2136;48.502;9.194;2023-04-30T10:57:00;3.30;;;2.70;;
4244;SDS011;2136;48.502;9.194;2023-04-30T10:59:35;3.13;;;2.40;;
4244;SDS011;2136;48.502;9.194;2023-04-30T11:02:02;6.93;;;2.90;;
4244;SDS011;2136;48.502;9.194;2023-04-30T11:04:29;5.47;;;3.43;;
4244;SDS011;2136;48.502;9.194;2023-04-30T11:07:08;4.37;;;3.50;;
4244;SDS011;2136;48.502;9.194;2023-04-30T11:09:38;3.17;;;2.87;;
4244;SDS011;2136;48.502;9.194;2023-04-30T11:12:11;3.67;;;2.90;;
4244;SDS011;2136;48.502;9.194;2023-04-30T11:14:39;2.97;;;2.70;;
4244;SDS011;2136;48.502;9.194;2023-04-30T11:17:08;5.37;;;3.93;;
4244;SDS011;2136;48.502;9.194;2023-04-30T11:19:41;3.00;;;2.80;;
4244;SDS011;2136;48.502;9.194;2023-04-30T11:22:15;4.03;;;3.60;;
4244;SDS011;2136;48.502;9.194;2023-04-30T11:24:53;4.47;;;2.97;;
4244;SDS011;2136;48.502;9.194;2023-04-30T11:27:33;4.63;;;2.97;;
4244;SDS011;2136;48.502;9.194;2023-04-30T11:30:01;6.10;;;3.73;;
4244;SDS011;2136;48.502;9.194;2023-04-30T11:32:33;3.73;;;3.43;;
4244;SDS011;2136;48.502;9.194;2023-04-30T11:35:01;7.80;;;4.23;;
4244;SDS011;2136;48.502;9.194;2023-04-30T11:37:29;3.50;;;3.20;;
4244;SDS011;2136;48.502;9.194;2023-04-30T11:39:58;2.87;;;2.63;;
4244;SDS011;2136;48.502;9.194;2023-04-30T11:42:27;3.20;;;2.97;;
4244;SDS011;2136;48.502;9.194;2023-04-30T11:45:02;3.50;;;2.90;;
4244;SDS011;2136;48.502;9.194;2023-04-30T11:47:40;3.27;;;3.00;;
4244;SDS011;2136;48.502;9.194;2023-04-30T11:50:08;3.33;;;3.03;;
4244;SDS011;2136;48.502;9.194;2023-04-30T11:52:36;3.20;;;3.00;;
4244;SDS011;2136;48.502;9.194;2023-04-30T11:55:12;2.97;;;2.77;;
4244;SDS011;2136;48.502;9.194;2023-04-30T11:57:41;3.27;;;3.07;;
4244;SDS011;2136;48.502;9.194;2023-04-30T12:00:13;4.90;;;3.57;;
4244;SDS011;2136;48.502;9.194;2023-04-30T12:02:41;4.03;;;2.87;;
4244;SDS011;2136;48.502;9.194;2023-04-30T12:05:12;2.93;;;2.73;;
4244;SDS011;2136;48.502;9.194;2023-04-30T12:07:45;4.63;;;2.87;;
4244;SDS011;2136;48.502;9.194;2023-04-30T12:10:17;3.77;;;2.90;;
4244;SDS011;2136;48.502;9.194;2023-04-30T12:12:45;2.80;;;2.53;;
4244;SDS011;2136;48.502;9.194;2023-04-30T12:15:15;3.23;;;2.93;;
4244;SDS011;2136;48.502;9.194;2023-04-30T12:17:44;2.90;;;2.60;;
4244;SDS011;2136;48.502;9.194;2023-04-30T12:20:12;2.67;;;2.47;;
4244;SDS011;2136;48.502;9.194;2023-04-30T12:22:40;2.43;;;2.33;;
4244;SDS011;2136;48.502;9.194;2023-04-30T12:25:10;3.10;;;2.90;;
4244;SDS011;2136;48.502;9.194;2023-04-30T12:27:38;2.67;;;2.47;;
4244;SDS011;2136;48.502;9.194;2023-04-30T12:30:06;2.80;;;2.67;;
4244;SDS011;2136;48.502;9.194;2023-04-30T12:32:39;3.13;;;2.67;;
4244;SDS011;2136;48.502;9.194;2023-04-30T12:35:07;2.37;;;2.27;;
4244;SDS011;2136;48.502;9.194;2023-04-30T12:37:40;3.47;;;3.17;;
4244;SDS011;2136;48.502;9.194;2023-04-30T12:40:08;3.10;;;2.53;;
4244;SDS011;2136;48.502;9.194;2023-04-30T12:42:36;2.80;;;2.50;;
4244;SDS011;2136;48.502;9.194;2023-04-30T12:45:03;2.60;;;2.40;;
4244;SDS011;2136;48.502;9.194;2023-04-30T12:47:31;4.40;;;2.47;;
4244;SDS011;2136;48.502;9.194;2023-04-30T12:49:59;2.67;;;2.50;;
4244;SDS011;2136;48.502;9.194;2023-04-30T12:52:26;2.50;;;2.30;;
4244;SDS011;2136;48.502;9.194;2023-04-30T12:54:53;2.27;;;2.17;;
4244;SDS011;2136;48.502;9.194;2023-04-30T12:57:20;2.27;;;2.17;;
4244;SDS011;2136;48.502;9.194;2023-04-30T12:59:57;2.50;;;2.30;;
4244;SDS011;2136;48.502;9.194;2023-04-30T13:02:25;4.17;;;2.70;;
4244;SDS011;2136;48.502;9.194;2023-04-30T13:04:55;2.50;;;2.30;;
4244;SDS011;2136;48.502;9.194;2023-04-30T13:07:24;1.97;;;1.87;;
4244;SDS011;2136;48.502;9.194;2023-04-30T13:09:51;7.33;;;3.53;;
4244;SDS011;2136;48.502;9.194;2023-04-30T13:12:18;2.13;;;2.03;;
4244;SDS011;2136;48.502;9.194;2023-04-30T13:14:44;3.57;;;2.50;;
4244;SDS011;2136;48.502;9.194;2023-04-30T13:17:11;3.63;;;2.80;;
4244;SDS011;2136;48.502;9.194;2023-04-30T13:19:47;3.50;;;2.33;;
4244;SDS011;2136;48.502;9.194;2023-04-30T13:22:14;2.50;;;2.00;;
4244;SDS011;2136;48.502;9.194;2023-04-30T13:24:42;2.30;;;2.20;;
4244;SDS011;2136;48.502;9.194;2023-04-30T13:27:09;2.63;;;2.43;;
4244;SDS011;2136;48.502;9.194;2023-04-30T13:29:36;2.17;;;1.97;;
4244;SDS011;2136;48.502;9.194;2023-04-30T13:32:03;3.10;;;2.80;;
4244;SDS011;2136;48.502;9.194;2023-04-30T13:34:30;2.47;;;2.20;;
4244;SDS011;2136;48.502;9.194;2023-04-30T13:36:57;4.27;;;2.60;;
4244;SDS011;2136;48.502;9.194;2023-04-30T13:39:24;3.80;;;2.37;;
4244;SDS011;2136;48.502;9.194;2023-04-30T13:41:52;2.53;;;2.33;;
4244;SDS011;2136;48.502;9.194;2023-04-30T13:44:19;2.43;;;2.23;;
4244;SDS011;2136;48.502;9.194;2023-04-30T13:46:46;2.77;;;2.57;;
4244;SDS011;2136;48.502;9.194;2023-04-30T13:49:14;2.40;;;2.23;;
4244;SDS011;2136;48.502;9.194;2023-04-30T13:51:42;2.63;;;2.43;;
4244;SDS011;2136;48.502;9.194;2023-04-30T13:54:09;4.87;;;2.93;;
4244;SDS011;2136;48.502;9.194;2023-04-30T13:56:36;3.37;;;2.70;;
4244;SDS011;2136;48.502;9.194;2023-04-30T13:59:05;2.80;;;2.60;;
4244;SDS011;2136;48.502;9.194;2023-04-30T14:01:31;2.77;;;2.57;;
4244;SDS011;2136;48.502;9.194;2023-04-30T14:03:58;2.60;;;2.40;;
4244;SDS011;2136;48.502;9.194;2023-04-30T14:06:26;2.47;;;1.97;;
4244;SDS011;2136;48.502;9.194;2023-04-30T14:08:53;2.73;;;2.43;;
4244;SDS011;2136;48.502;9.194;2023-04-30T14:11:20;3.63;;;2.63;;
4244;SDS011;2136;48.502;9.194;2023-04-30T14:13:47;2.63;;;2.43;;
4244;SDS011;2136;48.502;9.194;2023-04-30T14:16:15;3.63;;;2.60;;
4244;SDS011;2136;48.502;9.194;2023-04-30T14:18:43;4.75;;;3.05;;
4244;SDS011;2136;48.502;9.194;2023-04-30T14:21:09;2.90;;;2.70;;
4244;SDS011;2136;48.502;9.194;2023-04-30T14:23:36;3.03;;;2.83;;
4244;SDS011;2136;48.502;9.194;2023-04-30T14:26:03;2.40;;;2.30;;
4244;SDS011;2136;48.502;9.194;2023-04-30T14:28:31;2.30;;;2.20;;
4244;SDS011;2136;48.502;9.194;2023-04-30T14:30:57;2.80;;;2.60;;
4244;SDS011;2136;48.502;9.194;2023-04-30T14:33:26;2.50;;;2.30;;
4244;SDS011;2136;48.502;9.194;2023-04-30T14:35:52;3.13;;;2.83;;
4244;SDS011;2136;48.502;9.194;2023-04-30T14:38:19;2.97;;;2.77;;
4244;SDS011;2136;48.502;9.194;2023-04-30T14:40:46;2.87;;;2.67;;
4244;SDS011;2136;48.502;9.194;2023-04-30T14:43:13;2.57;;;2.47;;
4244;SDS011;2136;48.502;9.194;2023-04-30T14:45:40;3.73;;;2.60;;
4244;SDS011;2136;48.502;9.194;2023-04-30T14:48:08;2.60;;;2.30;;
4244;SDS011;2136;48.502;9.194;2023-04-30T14:50:36;2.80;;;2.50;;
4244;SDS011;2136;48.502;9.194;2023-04-30T14:53:03;2.65;;;2.50;;
4244;SDS011;2136;48.502;9.194;2023-04-30T14:55:30;3.00;;;2.80;;
4244;SDS011;2136;48.502;9.194;2023-04-30T14:57:57;2.40;;;2.20;;
4244;SDS011;2136;48.502;9.194;2023-04-30T15:00:26;5.50;;;2.70;;
4244;SDS011;2136;48.502;9.194;2023-04-30T15:02:53;14.67;;;3.10;;
4244;SDS011;2136;48.502;9.194;2023-04-30T15:05:21;3.87;;;2.60;;
4244;SDS011;2136;48.502;9.194;2023-04-30T15:07:49;2.70;;;2.60;;
4244;SDS011;2136;48.502;9.194;2023-04-30T15:10:16;2.53;;;2.33;;
4244;SDS011;2136;48.502;9.194;2023-04-30T15:12:43;2.50;;;2.30;;
4244;SDS011;2136;48.502;9.194;2023-04-30T15:15:10;2.37;;;2.17;;
4244;SDS011;2136;48.502;9.194;2023-04-30T15:17:37;1.93;;;1.83;;
4244;SDS011;2136;48.502;9.194;2023-04-30T15:20:04;2.53;;;2.27;;
4244;SDS011;2136;48.502;9.194;2023-04-30T15:22:32;2.43;;;2.30;;